.
WxDataArchive / Data Records for 2012-05-31
2012-05-30 May 2012 2012-06-01

Data Records for Thursday, 31 May 2012

Time	Temp	Chill	HIndex	Humid	Dewpt	 Wind 	HiWind	WindDir	Rain 	Barom 
-----	----	-----	------	-----	-----	------	------	-------	-----	----- 
00:00	58.6	58.6	58.6	58	43.9	0	0	---	0.00	29.886 
00:05	58.3	58.3	58.3	58	43.6	0	1	270	0.00	29.886 
00:10	58.1	58.1	58.1	58	43.4	0	1	270	0.00	29.886 
00:15	58.0	58.0	58.0	59	43.8	0	1	270	0.00	29.892 
00:20	57.8	57.8	57.8	59	43.6	0	1	270	0.00	29.892 
00:25	57.5	57.5	57.5	60	43.7	0	1	270	0.00	29.892 
00:30	57.3	57.3	57.3	60	43.5	0	1	270	0.00	29.899 
00:35	57.2	57.2	57.2	60	43.4	0	1	270	0.00	29.899 
00:40	57.2	57.2	57.2	61	43.9	0	0	---	0.00	29.899 
00:45	56.9	56.9	56.9	61	43.6	0	1	270	0.00	29.889 
00:50	56.7	56.7	56.7	62	43.8	0	0	---	0.00	29.889 
00:55	56.5	56.5	56.5	62	43.6	0	0	---	0.00	29.889 
01:00	56.3	56.3	56.3	63	43.9	0	0	---	0.00	29.890 
01:05	56.2	56.2	56.2	64	44.2	0	0	---	0.00	29.890 
01:10	55.9	55.9	55.9	64	43.9	0	0	---	0.00	29.890 
01:15	55.7	55.7	55.7	64	43.7	0	1	270	0.00	29.885 
01:20	55.6	55.6	55.6	65	44.0	0	0	---	0.00	29.885 
01:25	55.4	55.4	55.4	65	43.8	0	0	---	0.00	29.885 
01:30	55.3	55.3	55.3	65	43.7	0	1	270	0.00	29.888 
01:35	55.1	55.1	55.1	65	43.5	0	0	---	0.00	29.888 
01:40	55.0	55.0	55.0	65	43.5	0	0	---	0.00	29.888 
01:45	54.8	54.8	54.8	66	43.7	0	0	---	0.00	29.898 
01:50	54.7	54.7	54.7	67	44.0	0	0	---	0.00	29.898 
01:55	54.5	54.5	54.5	67	43.8	0	1	270	0.00	29.898 
02:00	54.4	54.4	54.4	67	43.7	0	1	270	0.00	29.899 
02:05	54.4	54.4	54.4	67	43.7	0	1	270	0.00	29.899 
02:10	54.2	54.2	54.2	67	43.5	0	1	270	0.00	29.899 
02:15	54.1	54.1	54.1	68	43.8	0	0	---	0.00	29.901 
02:20	53.9	53.9	53.9	68	43.6	0	1	270	0.00	29.901 
02:25	53.9	53.9	53.9	69	44.0	0	1	270	0.00	29.901 
02:30	53.8	53.8	53.8	69	43.9	0	0	---	0.00	29.902 
02:35	53.6	53.6	53.6	69	43.7	0	1	270	0.00	29.902 
02:40	53.5	53.5	53.5	69	43.6	0	0	---	0.00	29.902 
02:45	53.3	53.3	53.3	70	43.8	0	0	---	0.00	29.900 
02:50	53.2	53.2	53.2	70	43.7	0	1	270	0.00	29.900 
02:55	53.1	53.1	53.1	70	43.6	0	1	270	0.00	29.900 
03:00	53.1	53.1	53.1	71	43.9	0	1	270	0.00	29.902 
03:05	52.9	52.9	52.9	71	43.8	0	1	270	0.00	29.902 
03:10	52.8	52.8	52.8	71	43.7	0	1	270	0.00	29.902 
03:15	52.8	52.8	52.8	72	44.0	0	1	270	0.00	29.903 
03:20	52.6	52.6	52.6	72	43.8	0	1	270	0.00	29.903 
03:25	52.6	52.6	52.6	73	44.2	0	0	---	0.00	29.903 
03:30	52.5	52.5	52.5	73	44.1	0	1	270	0.00	29.907 
03:35	52.3	52.3	52.3	73	43.9	0	1	270	0.00	29.907 
03:40	52.3	52.3	52.3	73	43.9	0	2	270	0.00	29.907 
03:45	52.2	52.2	52.2	74	44.2	0	1	270	0.00	29.907 
03:50	52.2	52.2	52.2	74	44.2	0	2	270	0.00	29.907 
03:55	52.2	52.2	52.2	74	44.2	0	1	270	0.00	29.907 
04:00	52.0	52.0	52.0	74	44.0	0	1	270	0.00	29.916 
04:05	52.0	52.0	52.0	75	44.3	0	2	270	0.00	29.916 
04:10	51.9	51.9	51.9	75	44.2	0	1	270	0.00	29.916 
04:15	51.7	51.7	51.7	75	44.0	0	2	270	0.00	29.920 
04:20	51.7	51.7	51.7	76	44.4	0	1	270	0.00	29.920 
04:25	51.6	51.6	51.6	76	44.3	0	1	270	0.00	29.920 
04:30	51.6	51.6	51.6	76	44.3	0	1	270	0.00	29.918 
04:35	51.4	51.4	51.4	77	44.4	0	1	270	0.00	29.918 
04:40	51.3	51.3	51.3	77	44.3	0	1	270	0.00	29.918 
04:45	51.3	51.3	51.3	77	44.3	0	1	270	0.00	29.910 
04:50	51.1	51.1	51.1	78	44.5	0	0	---	0.00	29.910 
04:55	51.0	51.0	51.0	78	44.4	0	0	---	0.00	29.910 
05:00	50.8	50.8	50.8	79	44.5	0	1	270	0.00	29.909 
05:05	50.8	50.8	50.8	79	44.5	0	1	270	0.00	29.909 
05:10	50.7	50.7	50.7	79	44.4	0	1	270	0.00	29.909 
05:15	50.7	50.7	50.7	80	44.8	0	1	270	0.00	29.920 
05:20	50.5	50.5	50.5	80	44.6	0	1	270	0.00	29.920 
05:25	50.5	50.5	50.5	80	44.6	0	1	270	0.00	29.920 
05:30	50.4	50.4	50.4	80	44.5	0	1	270	0.00	29.923 
05:35	50.4	50.4	50.4	81	44.8	0	1	270	0.00	29.923 
05:40	50.4	50.4	50.4	81	44.8	0	1	270	0.00	29.923 
05:45	50.4	50.4	50.4	81	44.8	0	1	270	0.00	29.915 
05:50	50.4	50.4	50.4	81	44.8	0	2	270	0.00	29.915 
05:55	50.5	50.5	50.5	81	44.9	0	1	270	0.00	29.915 
06:00	50.5	50.5	50.5	81	44.9	0	2	270	0.00	29.922 
06:05	50.5	50.5	50.5	81	44.9	0	1	270	0.00	29.922 
06:10	50.5	50.5	50.5	81	44.9	0	1	270	0.00	29.922 
06:15	50.5	50.5	50.5	81	44.9	0	0	---	0.00	29.922 
06:20	50.4	50.4	50.4	81	44.8	0	1	270	0.00	29.922 
06:25	50.4	50.4	50.4	81	44.8	0	1	270	0.00	29.922 
06:30	50.4	50.4	50.4	81	44.8	0	1	270	0.00	29.925 
06:35	50.5	50.5	50.5	81	44.9	0	1	270	0.00	29.925 
06:40	50.5	50.5	50.5	81	44.9	0	1	270	0.00	29.925 
06:45	50.5	50.5	50.5	81	44.9	0	1	270	0.00	29.937 
06:50	50.5	50.5	50.5	81	44.9	0	1	270	0.00	29.937 
06:55	50.7	50.7	50.7	81	45.1	0	1	270	0.00	29.937 
07:00	50.8	50.8	50.8	81	45.2	0	1	270	0.00	29.941 
07:05	51.0	51.0	51.0	81	45.4	0	1	270	0.00	29.941 
07:10	51.1	51.1	51.1	81	45.5	0	4	270	0.00	29.941 
07:15	51.4	51.4	51.4	81	45.8	0	3	270	0.00	29.944 
07:20	51.9	51.9	51.9	80	45.9	0	3	270	0.00	29.944 
07:25	52.3	52.3	52.3	79	46.0	0	3	270	0.00	29.944 
07:30	52.6	52.6	52.6	77	45.6	1	4	270	0.00	29.941 
07:35	52.8	52.8	52.8	77	45.8	0	4	45	0.00	29.941 
07:40	52.8	52.8	52.8	77	45.8	0	3	112	0.00	29.941 
07:45	52.8	52.8	52.8	77	45.8	0	3	112	0.00	29.949 
07:50	52.9	52.9	52.9	77	45.9	1	3	112	0.00	29.949 
07:55	53.5	53.5	53.5	76	46.1	1	4	112	0.00	29.949 
08:00	53.8	53.8	53.8	75	46.1	1	5	112	0.00	29.956 
08:05	54.4	54.4	54.4	73	45.9	2	5	90	0.00	29.956 
08:10	54.7	54.7	54.7	73	46.2	2	5	90	0.00	29.956 
08:15	54.7	54.7	54.7	73	46.2	4	10	90	0.00	29.945 
08:20	54.8	54.8	54.8	73	46.3	2	9	90	0.00	29.945 
08:25	55.4	55.4	55.4	72	46.5	2	6	90	0.00	29.945 
08:30	55.6	55.6	55.6	71	46.3	3	9	90	0.00	29.951 
08:35	55.9	55.9	55.9	71	46.6	2	7	90	0.00	29.951 
08:40	56.2	56.2	56.2	70	46.5	2	9	112	0.00	29.951 
08:45	56.5	56.5	56.5	70	46.8	0	2	112	0.00	29.950 
08:50	56.5	56.5	56.5	71	47.2	2	5	112	0.00	29.950 
08:55	56.3	56.3	56.3	72	47.4	2	6	90	0.00	29.950 
09:00	56.5	56.5	56.5	72	47.6	3	7	90	0.00	29.943 
09:05	56.2	56.2	56.2	73	47.7	4	7	90	0.00	29.943 
09:10	56.3	56.3	56.3	73	47.8	2	6	90	0.00	29.943 
09:15	56.2	56.2	56.2	74	48.0	3	7	90	0.00	29.950 
09:20	56.2	56.2	56.2	75	48.4	3	7	90	0.00	29.950 
09:25	56.3	56.3	56.3	75	48.5	2	6	112	0.00	29.950 
09:30	56.5	56.5	56.5	76	49.0	2	6	90	0.00	29.943 
09:35	56.7	56.7	56.7	75	48.9	2	6	90	0.00	29.943 
09:40	56.9	56.9	56.9	75	49.1	3	6	90	0.00	29.943 
09:45	57.2	57.2	57.2	75	49.3	1	4	90	0.00	29.943 
09:50	57.6	57.6	57.6	74	49.4	2	4	90	0.00	29.943 
09:55	58.1	58.1	58.1	74	49.9	2	4	68	0.00	29.943 
10:00	58.6	58.6	58.6	73	50.0	2	5	90	0.00	29.941 
10:05	59.0	59.0	59.0	73	50.4	1	3	90	0.00	29.941 
10:10	59.3	59.3	59.3	72	50.3	2	6	90	0.00	29.941 
10:15	59.6	59.6	59.6	72	50.6	1	5	90	0.00	29.936 
10:20	60.2	60.2	60.2	72	51.1	2	4	68	0.00	29.936 
10:25	60.9	60.9	60.9	69	50.7	3	6	68	0.00	29.936 
10:30	60.9	60.9	60.9	70	51.0	2	6	90	0.00	29.935 
10:35	60.7	60.7	60.7	70	50.9	2	6	90	0.00	29.935 
10:40	60.9	60.9	60.9	70	51.0	2	4	90	0.00	29.935 
10:45	60.9	60.9	60.9	69	50.7	2	6	90	0.00	29.931 
10:50	60.7	60.7	60.7	70	50.9	3	7	90	0.00	29.931 
10:55	60.9	60.9	60.9	70	51.0	2	5	90	0.00	29.931 
11:00	61.2	61.2	61.2	70	51.3	2	5	90	0.00	29.938 
11:05	61.6	61.6	61.6	69	51.3	1	4	90	0.00	29.938 
11:10	62.0	62.0	62.0	69	51.7	1	5	90	0.00	29.938 
11:15	62.1	62.1	62.1	69	51.8	1	6	90	0.00	29.946 
11:20	62.1	62.1	62.1	68	51.4	0	2	90	0.00	29.946 
11:25	62.0	62.0	62.0	69	51.7	0	2	90	0.00	29.946 
11:30	62.1	62.1	62.1	69	51.8	1	3	90	0.00	29.941 
11:35	62.4	62.4	62.4	69	52.1	1	3	90	0.00	29.941 
11:40	62.9	62.9	62.9	68	52.2	1	3	90	0.00	29.941 
11:45	63.2	63.2	63.2	68	52.5	0	2	90	0.00	29.934 
11:50	63.5	63.5	63.5	66	51.9	1	4	90	0.00	29.934 
11:55	63.7	63.7	63.7	66	52.1	1	4	90	0.00	29.934 
12:00	63.7	63.7	63.7	67	52.5	1	5	90	0.00	29.934 
12:05	63.7	63.7	63.7	66	52.1	0	3	90	0.00	29.934 
12:10	63.7	63.7	63.7	66	52.1	1	4	90	0.00	29.934 
12:15	63.9	63.9	63.9	66	52.3	1	5	90	0.00	29.924 
12:20	64.0	64.0	64.0	66	52.4	2	6	90	0.00	29.924 
12:25	64.2	64.2	64.2	65	52.2	2	5	90	0.00	29.924 
12:30	64.2	64.2	64.2	66	52.6	1	5	90	0.00	29.913 
12:35	64.3	64.3	64.3	65	52.3	2	6	90	0.00	29.913 
12:40	64.5	64.5	64.5	66	52.9	0	3	90	0.00	29.913 
12:45	64.5	64.5	64.5	64	52.0	1	4	90	0.00	29.917 
12:50	64.7	64.7	64.7	65	52.7	1	4	90	0.00	29.917 
12:55	65.6	65.6	65.6	66	53.9	1	3	90	0.00	29.917 
13:00	66.4	66.4	66.4	61	52.5	1	5	90	0.00	29.910 
13:05	67.3	67.3	67.3	60	52.9	2	6	90	0.00	29.910 
13:10	67.4	67.4	67.4	61	53.5	0	2	90	0.00	29.910 
13:15	67.6	67.6	67.6	59	52.8	2	7	90	0.00	29.904 
13:20	67.3	67.3	67.3	59	52.5	2	7	90	0.00	29.904 
13:25	67.3	67.3	67.3	60	52.9	2	5	112	0.00	29.904 
13:30	67.8	67.8	67.8	59	52.9	2	7	112	0.00	29.893 
13:35	68.6	68.6	68.6	56	52.3	4	7	90	0.00	29.893 
13:40	69.3	69.3	69.3	56	52.9	2	9	112	0.00	29.893 
13:45	69.1	69.1	69.1	56	52.7	3	7	112	0.00	29.895 
13:50	68.3	68.3	68.3	57	52.5	3	9	90	0.00	29.895 
13:55	67.9	67.9	67.9	56	51.6	2	4	112	0.00	29.895 
14:00	67.6	67.6	67.6	57	51.8	1	5	112	0.00	29.891 
14:05	67.9	67.9	67.9	56	51.6	2	6	90	0.00	29.891 
14:10	68.8	68.8	68.8	55	52.0	2	7	90	0.00	29.891 
14:15	68.8	68.8	68.8	56	52.5	3	9	90	0.00	29.881 
14:20	68.9	68.9	68.9	55	52.1	2	7	90	0.00	29.881 
14:25	68.9	68.9	68.9	54	51.6	2	6	112	0.00	29.881 
14:30	68.9	68.9	68.9	53	51.1	3	9	112	0.00	29.875 
14:35	69.6	69.6	69.6	54	52.2	2	7	112	0.00	29.875 
14:40	69.9	69.9	69.9	51	50.9	3	7	90	0.00	29.875 
14:45	69.8	69.8	69.8	51	50.8	4	13	90	0.00	29.860 
14:50	69.6	69.6	69.6	51	50.7	4	7	90	0.00	29.860 
14:55	69.4	69.4	69.4	52	51.0	3	12	68	0.00	29.860 
15:00	69.4	69.4	69.4	51	50.5	2	7	90	0.00	29.855 
15:05	69.4	69.4	69.4	50	49.9	3	6	90	0.00	29.855 
15:10	69.4	69.4	69.4	51	50.5	3	9	90	0.00	29.855 
15:15	70.1	70.1	70.1	50	50.6	2	6	90	0.00	29.846 
15:20	70.4	70.4	70.4	49	50.3	3	5	90	0.00	29.846 
15:25	70.4	70.4	70.4	50	50.9	3	9	90	0.00	29.846 
15:30	70.3	70.3	70.3	50	50.8	3	10	90	0.00	29.839 
15:35	70.4	70.4	70.4	51	51.4	2	9	90	0.00	29.839 
15:40	70.8	70.8	70.8	49	50.7	3	9	90	0.00	29.839 
15:45	70.8	70.8	70.8	48	50.1	3	10	90	0.00	29.827 
15:50	70.8	70.8	70.8	49	50.7	3	9	90	0.00	29.827 
15:55	70.4	70.4	70.4	50	50.9	5	17	90	0.00	29.827 
16:00	70.1	70.1	70.1	50	50.6	3	9	90	0.00	29.816 
16:05	70.3	70.3	70.3	49	50.2	4	10	90	0.00	29.816 
16:10	70.3	70.3	70.3	49	50.2	4	12	90	0.00	29.816 
16:15	70.3	70.3	70.3	50	50.8	4	11	112	0.00	29.811 
16:20	70.6	70.6	70.6	48	49.9	3	6	112	0.00	29.811 
16:25	70.3	70.3	70.3	49	50.2	5	11	90	0.00	29.811 
16:30	69.6	69.6	69.6	50	50.1	5	12	90	0.00	29.809 
16:35	69.4	69.4	69.4	51	50.5	4	12	90	0.00	29.809 
16:40	69.3	69.3	69.3	51	50.4	5	13	90	0.00	29.809 
16:45	69.1	69.1	69.1	50	49.7	3	9	90	0.00	29.810 
16:50	68.8	68.8	68.8	50	49.4	4	12	90	0.00	29.810 
16:55	68.8	68.8	68.8	51	49.9	3	10	90	0.00	29.810 
17:00	68.8	68.8	68.8	52	50.4	4	9	90	0.00	29.807 
17:05	68.6	68.6	68.6	51	49.7	4	14	112	0.00	29.807 
17:10	68.4	68.4	68.4	52	50.1	3	10	90	0.00	29.807 
17:15	68.3	68.3	68.3	53	50.5	2	7	112	0.00	29.818 
17:20	67.9	67.9	67.9	53	50.1	3	6	90	0.00	29.818 
17:25	67.8	67.8	67.8	54	50.5	2	7	90	0.00	29.818 
17:30	67.8	67.8	67.8	53	50.0	3	7	90	0.00	29.805 
17:35	67.4	67.4	67.4	54	50.2	3	8	90	0.00	29.805 
17:40	67.3	67.3	67.3	54	50.1	2	7	112	0.00	29.805 
17:45	66.9	66.9	66.9	55	50.2	2	5	90	0.00	29.801 
17:50	66.6	66.6	66.6	55	49.9	4	12	45	0.00	29.801 
17:55	66.6	66.6	66.6	55	49.9	5	11	90	0.00	29.801 
18:00	66.4	66.4	66.4	56	50.2	4	11	90	0.00	29.794 
18:05	66.4	66.4	66.4	56	50.2	3	10	90	0.00	29.794 
18:10	66.3	66.3	66.3	56	50.1	4	9	90	0.00	29.794 
18:15	66.1	66.1	66.1	56	49.9	4	9	90	0.00	29.788 
18:20	65.8	65.8	65.8	56	49.7	3	8	90	0.00	29.788 
18:25	65.3	65.3	65.3	57	49.7	2	6	90	0.00	29.788 
18:30	65.0	65.0	65.0	57	49.4	1	5	45	0.00	29.804 
18:35	64.7	64.7	64.7	59	50.0	2	6	45	0.00	29.804 
18:40	64.0	64.0	64.0	62	50.7	2	7	112	0.00	29.804 
18:45	63.4	63.4	63.4	65	51.4	2	6	112	0.00	29.815 
18:50	62.6	62.6	62.6	70	52.7	3	8	112	0.00	29.815 
18:55	61.8	61.8	61.8	73	53.0	1	6	90	0.00	29.815 
19:00	61.0	61.0	61.0	76	53.4	1	5	90	0.01	29.819 
19:05	60.2	60.2	60.2	78	53.3	2	10	90	0.01	29.819 
19:10	59.8	59.8	59.8	79	53.3	1	4	68	0.00	29.819 
19:15	59.3	59.3	59.3	81	53.5	1	3	90	0.01	29.821 
19:20	58.9	58.9	58.9	81	53.1	0	3	90	0.01	29.821 
19:25	58.6	58.6	58.6	83	53.4	0	1	90	0.01	29.821 
19:30	58.3	58.3	58.3	84	53.5	0	3	90	0.01	29.831 
19:35	58.0	58.0	58.0	85	53.5	1	4	68	0.01	29.831 
19:40	57.6	57.6	57.6	86	53.4	0	1	68	0.02	29.831 
19:45	57.5	57.5	57.5	87	53.7	1	4	90	0.01	29.822 
19:50	57.2	57.2	57.2	88	53.7	0	4	90	0.00	29.822 
19:55	57.0	57.0	57.0	89	53.8	1	3	90	0.01	29.822 
20:00	57.0	57.0	57.0	89	53.8	2	4	68	0.01	29.824 
20:05	56.9	56.9	56.9	90	54.0	1	5	90	0.01	29.824 
20:10	56.7	56.7	56.7	90	53.8	2	5	68	0.00	29.824 
20:15	56.6	56.6	56.6	90	53.7	3	7	90	0.01	29.818 
20:20	56.5	56.5	56.5	90	53.6	3	6	90	0.00	29.818 
20:25	56.5	56.5	56.5	90	53.6	2	7	90	0.01	29.818 
20:30	56.5	56.5	56.5	91	53.9	2	4	45	0.01	29.818 
20:35	56.3	56.3	56.3	91	53.7	3	7	112	0.00	29.818 
20:40	56.2	56.2	56.2	91	53.6	2	6	90	0.00	29.818 
20:45	56.2	56.2	56.2	91	53.6	3	11	112	0.00	29.811 
20:50	56.0	56.0	56.0	91	53.4	3	14	90	0.00	29.811 
20:55	56.0	56.0	56.0	91	53.4	3	7	90	0.00	29.811 
21:00	56.0	56.0	56.0	91	53.4	3	14	112	0.00	29.807 
21:05	55.9	55.9	55.9	91	53.3	4	13	90	0.00	29.807 
21:10	55.7	55.7	55.7	91	53.1	4	10	90	0.00	29.807 
21:15	55.6	55.6	55.6	91	53.0	4	13	90	0.00	29.802 
21:20	55.4	55.4	55.4	91	52.8	4	11	90	0.00	29.802 
21:25	55.3	55.3	55.3	91	52.7	4	12	90	0.00	29.802 
21:30	55.3	55.3	55.3	91	52.7	3	11	90	0.00	29.799 
21:35	55.1	55.1	55.1	91	52.5	4	11	90	0.00	29.799 
21:40	55.3	55.3	55.3	91	52.7	3	6	90	0.00	29.799 
21:45	55.1	55.1	55.1	91	52.5	4	15	90	0.01	29.801 
21:50	55.1	55.1	55.1	91	52.5	3	8	90	0.00	29.801 
21:55	55.1	55.1	55.1	91	52.5	3	7	90	0.01	29.801 
22:00	54.8	54.8	54.8	91	52.2	3	7	90	0.00	29.789 
22:05	54.7	54.7	54.7	92	52.4	3	9	90	0.00	29.789 
22:10	54.5	54.5	54.5	92	52.2	2	6	90	0.00	29.789 
22:15	54.4	54.4	54.4	92	52.1	2	7	90	0.00	29.792 
22:20	54.4	54.4	54.4	92	52.1	3	8	90	0.00	29.792 
22:25	54.2	54.2	54.2	92	51.9	3	11	90	0.00	29.792 
22:30	54.1	54.1	54.1	91	51.5	4	10	90	0.00	29.786 
22:35	54.1	54.1	54.1	91	51.5	2	6	68	0.00	29.786 
22:40	53.9	53.9	53.9	91	51.3	3	11	112	0.00	29.786 
22:45	53.8	53.8	53.8	91	51.2	6	14	90	0.01	29.783 
22:50	53.8	53.8	53.8	91	51.2	3	11	90	0.00	29.783 
22:55	53.8	53.8	53.8	91	51.2	4	12	90	0.00	29.783 
23:00	53.6	53.6	53.6	91	51.0	3	10	90	0.00	29.782 
23:05	53.6	53.6	53.6	91	51.0	2	11	90	0.00	29.782 
23:10	53.5	53.5	53.5	91	50.9	4	14	90	0.00	29.782 
23:15	53.5	53.5	53.5	91	50.9	3	9	90	0.00	29.782 
23:20	53.3	53.3	53.3	91	50.7	3	9	90	0.00	29.782 
23:25	53.3	53.3	53.3	91	50.7	5	10	90	0.00	29.782 
23:30	53.2	53.2	53.2	90	50.3	6	17	90	0.00	29.782 
23:35	53.2	53.2	53.2	90	50.3	4	11	90	0.00	29.782 
23:40	53.3	53.3	53.3	90	50.4	2	6	90	0.00	29.782 
23:45	53.2	53.2	53.2	90	50.3	4	13	90	0.00	29.783 
23:50	53.2	53.2	53.2	90	50.3	4	10	90	0.00	29.783 
23:55	53.2	53.2	53.2	90	50.3	4	10	90	0.01	29.783 

CoCoRaHS
IN-AL-39
A2 Web Hosting
Creative Commons License
GoDaddy
search engine by freefind advanced

loaded 2018-11-17 22:47:06 • last modified 2010-11-18 10:43:29
Privacy PolicyDisclaimer
• wx.awcolley.com is powered by PmWiki v.2002016 •
• all content (unless otherwise noted) © 2018 A W Colley